createdAt,value
2019-01-31T00:02:21.788Z,0.80
2019-01-31T00:05:02.892Z,0.80
2019-01-31T00:08:11.704Z,0.80
2019-01-31T00:11:06.398Z,0.80
2019-01-31T00:14:14.456Z,0.80
2019-01-31T00:17:27.738Z,0.70
2019-01-31T00:20:22.023Z,0.70
2019-01-31T00:23:38.640Z,0.60
2019-01-31T00:27:14.724Z,0.60
2019-01-31T00:30:15.686Z,0.60
2019-01-31T00:33:44.988Z,0.60
2019-01-31T00:36:37.703Z,0.60
2019-01-31T00:39:37.852Z,0.60
2019-01-31T00:42:48.125Z,0.60
2019-01-31T00:45:28.708Z,0.60
2019-01-31T00:48:14.432Z,0.60
2019-01-31T00:51:26.027Z,0.60
2019-01-31T00:54:23.236Z,0.60
2019-01-31T00:57:26.400Z,0.60
2019-01-31T01:00:21.296Z,0.60
2019-01-31T01:03:36.906Z,0.70
2019-01-31T01:06:38.649Z,0.70
2019-01-31T01:09:42.744Z,0.70
2019-01-31T01:12:55.997Z,0.70
2019-01-31T01:15:57.449Z,0.70
2019-01-31T01:18:42.999Z,0.70
2019-01-31T01:22:15.653Z,0.70
2019-01-31T01:25:02.575Z,0.70
2019-01-31T01:27:44.533Z,0.70
2019-01-31T01:30:30.875Z,0.70
2019-01-31T01:33:33.711Z,0.70
2019-01-31T01:36:29.957Z,0.60
2019-01-31T01:39:37.058Z,0.60
2019-01-31T01:42:42.635Z,0.70
2019-01-31T01:45:39.749Z,0.80
2019-01-31T01:48:38.331Z,0.90
2019-01-31T01:51:38.586Z,0.90
2019-01-31T01:54:56.081Z,1.00
2019-01-31T01:58:19.201Z,1.00
2019-01-31T02:01:40.505Z,1.10
2019-01-31T02:04:23.101Z,1.10
2019-01-31T02:07:13.211Z,1.10
2019-01-31T02:10:45.936Z,1.10
2019-01-31T02:13:51.607Z,1.10
2019-01-31T02:16:32.982Z,1.10
2019-01-31T02:19:31.462Z,1.10
2019-01-31T02:22:36.944Z,1.10
2019-01-31T02:25:12.361Z,1.10
2019-01-31T02:28:14.297Z,1.10
2019-01-31T02:31:28.737Z,1.10
2019-01-31T02:34:48.995Z,1.10
2019-01-31T02:37:44.365Z,1.20
2019-01-31T02:40:41.425Z,1.20
2019-01-31T02:43:35.756Z,1.20
2019-01-31T02:46:41.460Z,1.10
2019-01-31T02:49:53.392Z,1.20
2019-01-31T02:53:07.758Z,1.20
2019-01-31T02:56:01.803Z,1.30
2019-01-31T02:59:18.062Z,1.30
2019-01-31T03:02:16.422Z,1.40
2019-01-31T03:05:30.618Z,1.40
2019-01-31T03:08:21.463Z,1.40
2019-01-31T03:11:09.256Z,1.40
2019-01-31T03:13:51.088Z,1.40
2019-01-31T03:16:59.131Z,1.40
2019-01-31T03:19:54.967Z,1.50
2019-01-31T03:23:00.370Z,1.50
2019-01-31T03:26:04.608Z,1.50
2019-01-31T03:29:00.338Z,1.60
2019-01-31T03:31:53.299Z,1.60
2019-01-31T03:35:09.322Z,1.60
2019-01-31T03:38:01.801Z,1.60
2019-01-31T03:41:02.836Z,1.60
2019-01-31T03:43:45.635Z,1.60
2019-01-31T03:47:06.015Z,1.60
2019-01-31T03:49:50.683Z,1.60
2019-01-31T03:52:54.904Z,1.50
2019-01-31T03:55:41.940Z,1.50
2019-01-31T03:58:50.704Z,1.50
2019-01-31T04:02:06.766Z,1.50
2019-01-31T04:05:00.617Z,1.50
2019-01-31T04:07:31.262Z,1.50
2019-01-31T04:10:01.732Z,1.40
2019-01-31T04:12:32.024Z,1.40
2019-01-31T04:15:02.964Z,1.40
2019-01-31T04:17:33.576Z,1.40
2019-01-31T04:20:03.988Z,1.40
2019-01-31T04:22:34.468Z,1.40
2019-01-31T04:25:05.216Z,1.40
2019-01-31T04:27:35.686Z,1.40
2019-01-31T04:30:08.144Z,1.40
2019-01-31T04:32:38.784Z,1.40
2019-01-31T04:35:09.291Z,1.40
2019-01-31T04:37:40.272Z,1.30
2019-01-31T04:40:11.597Z,1.30
2019-01-31T04:42:42.176Z,1.20
2019-01-31T04:45:13.138Z,1.20
2019-01-31T04:47:43.786Z,1.10
2019-01-31T04:50:15.107Z,1.10
2019-01-31T04:52:46.052Z,1.00
2019-01-31T04:55:16.190Z,1.00
2019-01-31T04:57:46.584Z,1.00
2019-01-31T05:00:18.347Z,1.10
2019-01-31T05:02:48.800Z,1.10
2019-01-31T05:05:19.793Z,1.10
2019-01-31T05:07:50.200Z,1.20
2019-01-31T05:10:20.982Z,1.20
2019-01-31T05:12:52.623Z,1.30
2019-01-31T05:15:23.418Z,1.30
2019-01-31T05:17:54.154Z,1.30
2019-01-31T05:20:24.932Z,1.30
2019-01-31T05:22:55.167Z,1.30
2019-01-31T05:25:26.054Z,1.40
2019-01-31T05:27:56.524Z,1.40
2019-01-31T05:30:27.038Z,1.40
2019-01-31T05:32:59.049Z,1.40
2019-01-31T05:35:29.574Z,1.40
2019-01-31T05:38:00.116Z,1.30
2019-01-31T05:40:30.927Z,1.30
2019-01-31T05:43:01.162Z,1.40
2019-01-31T05:45:31.914Z,1.40
2019-01-31T05:48:02.209Z,1.40
2019-01-31T05:50:32.530Z,1.50
2019-01-31T05:53:02.893Z,1.50
2019-01-31T05:55:33.494Z,1.50
2019-01-31T05:58:03.530Z,1.50
2019-01-31T06:00:37.425Z,1.50
2019-01-31T06:03:08.142Z,1.50
2019-01-31T06:05:39.099Z,1.50
2019-01-31T06:08:09.430Z,1.40
2019-01-31T06:10:40.529Z,1.40
2019-01-31T06:13:11.181Z,1.50
2019-01-31T06:15:42.235Z,1.40
2019-01-31T06:18:12.933Z,1.40
2019-01-31T06:20:43.686Z,1.40
2019-01-31T06:23:14.497Z,1.40
2019-01-31T06:25:45.104Z,1.40
2019-01-31T06:28:15.444Z,1.50
2019-01-31T06:30:46.049Z,1.50
2019-01-31T06:33:16.667Z,1.40
2019-01-31T06:35:47.238Z,1.40
2019-01-31T06:38:17.625Z,1.40
2019-01-31T06:40:47.859Z,1.40
2019-01-31T06:43:18.635Z,1.30
2019-01-31T06:45:49.505Z,1.30
2019-01-31T06:48:20.083Z,1.30
2019-01-31T06:50:50.872Z,1.30
2019-01-31T06:53:21.160Z,1.20
2019-01-31T06:55:51.567Z,1.20
2019-01-31T06:58:22.097Z,1.10
2019-01-31T07:00:53.576Z,1.00
2019-01-31T07:03:24.551Z,1.00
2019-01-31T07:05:54.790Z,0.90
2019-01-31T07:08:25.386Z,0.90
2019-01-31T07:10:56.409Z,0.80
2019-01-31T07:13:26.486Z,0.70
2019-01-31T07:15:57.267Z,0.70
2019-01-31T07:18:27.727Z,0.60
2019-01-31T07:20:58.303Z,0.60
2019-01-31T07:23:28.751Z,0.50
2019-01-31T07:25:59.393Z,0.50
2019-01-31T07:28:29.788Z,0.50
2019-01-31T07:31:00.182Z,0.40
2019-01-31T07:33:30.792Z,0.40
2019-01-31T07:36:01.305Z,0.40
2019-01-31T07:38:31.197Z,0.40
2019-01-31T07:41:02.475Z,0.40
2019-01-31T07:43:33.155Z,0.40
2019-01-31T07:46:03.583Z,0.50
2019-01-31T07:48:34.116Z,0.50
2019-01-31T07:51:04.732Z,0.60
2019-01-31T07:53:35.693Z,0.60
2019-01-31T07:56:06.637Z,0.60
2019-01-31T07:58:37.041Z,0.60
2019-01-31T08:01:07.266Z,0.60
2019-01-31T08:03:40.664Z,0.70
2019-01-31T08:06:10.209Z,0.80
2019-01-31T08:08:40.981Z,0.80
2019-01-31T08:11:11.736Z,0.90
2019-01-31T08:13:42.526Z,0.90
2019-01-31T08:16:12.952Z,0.80
2019-01-31T08:18:43.580Z,0.80
2019-01-31T08:21:14.016Z,0.80
2019-01-31T08:23:44.706Z,0.80
2019-01-31T08:26:15.033Z,0.90
2019-01-31T08:28:45.510Z,0.90
2019-01-31T08:31:16.358Z,0.90
2019-01-31T08:33:47.316Z,0.90
2019-01-31T08:36:18.270Z,0.90
2019-01-31T08:38:49.232Z,0.90
2019-01-31T08:41:19.918Z,0.90
2019-01-31T08:43:51.256Z,0.90
2019-01-31T08:46:21.479Z,0.90
2019-01-31T08:48:52.216Z,0.90
2019-01-31T08:51:22.990Z,0.90
2019-01-31T08:53:53.717Z,0.80
2019-01-31T08:56:24.339Z,0.90
2019-01-31T08:58:55.264Z,0.70
2019-01-31T09:01:25.726Z,0.80
2019-01-31T09:03:55.802Z,0.70
2019-01-31T09:06:26.306Z,0.70
2019-01-31T09:08:57.096Z,0.80
2019-01-31T09:11:27.552Z,0.80
2019-01-31T09:14:00.797Z,0.80
2019-01-31T09:16:31.047Z,0.80
2019-01-31T09:19:04.081Z,0.90
2019-01-31T09:22:06.330Z,0.90
2019-01-31T09:24:50.270Z,0.90
2019-01-31T09:27:47.144Z,1.00
2019-01-31T09:31:06.039Z,1.10
2019-01-31T09:34:32.638Z,1.20
2019-01-31T09:37:42.294Z,1.30
2019-01-31T09:40:51.497Z,1.60
2019-01-31T09:43:58.412Z,1.70
2019-01-31T09:47:15.828Z,1.70
2019-01-31T09:50:37.823Z,1.80
2019-01-31T09:53:49.654Z,1.80
2019-01-31T09:56:46.767Z,1.80
2019-01-31T09:59:37.432Z,1.80
2019-01-31T10:02:53.414Z,1.80
2019-01-31T10:05:48.465Z,1.80
2019-01-31T10:08:50.845Z,1.80
2019-01-31T10:11:45.915Z,1.80
2019-01-31T10:14:50.340Z,1.90
2019-01-31T10:17:49.603Z,2.00
2019-01-31T10:21:01.591Z,2.00
2019-01-31T10:23:57.803Z,2.00
2019-01-31T10:27:06.079Z,2.00
2019-01-31T10:30:26.538Z,2.00
2019-01-31T10:33:39.656Z,2.00
2019-01-31T10:36:35.155Z,2.10
2019-01-31T10:39:30.729Z,2.10
2019-01-31T10:42:32.279Z,2.10
2019-01-31T10:45:52.309Z,2.30
2019-01-31T10:48:47.811Z,2.50
2019-01-31T10:52:13.371Z,2.60
2019-01-31T10:55:19.359Z,2.50
2019-01-31T10:58:33.255Z,2.40
2019-01-31T11:01:26.857Z,2.40
2019-01-31T11:04:15.575Z,2.40
2019-01-31T11:07:11.288Z,2.30
2019-01-31T11:10:11.589Z,2.40
2019-01-31T11:13:06.867Z,2.40
2019-01-31T11:16:36.015Z,2.40
2019-01-31T11:19:53.171Z,2.40
2019-01-31T11:23:06.843Z,2.40
2019-01-31T11:26:03.227Z,2.60
2019-01-31T11:29:19.307Z,2.90
2019-01-31T11:32:04.960Z,3.10
2019-01-31T11:35:13.965Z,3.20
2019-01-31T11:38:31.453Z,3.20
2019-01-31T11:41:14.542Z,3.20
2019-01-31T11:44:38.147Z,3.10
2019-01-31T11:47:28.979Z,3.00
2019-01-31T11:50:29.345Z,2.90
2019-01-31T11:53:09.273Z,2.90
2019-01-31T11:56:09.568Z,2.90
2019-01-31T11:58:51.575Z,2.80
2019-01-31T12:01:23.181Z,2.70
2019-01-31T12:03:57.238Z,2.60
2019-01-31T12:06:28.013Z,2.50
2019-01-31T12:08:59.015Z,2.50
2019-01-31T12:11:30.026Z,2.50
2019-01-31T12:14:00.703Z,2.60
2019-01-31T12:16:31.392Z,2.60
2019-01-31T12:19:03.513Z,2.60
2019-01-31T12:21:34.566Z,2.70
2019-01-31T12:24:15.890Z,2.80
2019-01-31T12:26:37.762Z,3.00
2019-01-31T12:29:08.434Z,3.00
2019-01-31T12:31:38.925Z,3.10
2019-01-31T12:34:09.272Z,3.20
2019-01-31T12:36:40.236Z,3.10
2019-01-31T12:39:11.994Z,3.00
2019-01-31T12:41:42.677Z,3.00
2019-01-31T12:44:13.558Z,3.00
2019-01-31T12:46:44.537Z,3.00
2019-01-31T12:49:15.680Z,3.10
2019-01-31T12:51:46.570Z,3.10
2019-01-31T12:54:17.550Z,3.20
2019-01-31T12:56:48.036Z,3.20
2019-01-31T12:59:18.990Z,3.20
2019-01-31T13:01:49.908Z,3.20
2019-01-31T13:04:20.756Z,3.30
2019-01-31T13:06:51.289Z,3.50
2019-01-31T13:09:22.968Z,3.50
2019-01-31T13:11:53.588Z,3.50
2019-01-31T13:14:23.933Z,3.40
2019-01-31T13:16:54.901Z,3.40
2019-01-31T13:19:25.683Z,3.50
2019-01-31T13:21:56.658Z,3.50
2019-01-31T13:24:27.258Z,3.40
2019-01-31T13:26:57.690Z,3.40
2019-01-31T13:29:28.437Z,3.40
2019-01-31T13:31:59.030Z,3.30
2019-01-31T13:34:29.898Z,3.40
2019-01-31T13:37:00.519Z,3.40
2019-01-31T13:39:31.268Z,3.50
2019-01-31T13:42:01.664Z,3.50
2019-01-31T13:44:32.422Z,3.60
2019-01-31T13:47:02.867Z,3.60
2019-01-31T13:49:34.224Z,3.60
2019-01-31T13:52:04.911Z,3.60
2019-01-31T13:54:35.426Z,3.70
2019-01-31T13:57:05.898Z,3.70
2019-01-31T13:59:37.061Z,3.60
2019-01-31T14:02:09.412Z,3.60
2019-01-31T14:04:39.425Z,3.50
2019-01-31T14:07:10.099Z,3.50
2019-01-31T14:09:40.457Z,3.50
2019-01-31T14:12:11.524Z,3.50
2019-01-31T14:14:42.548Z,3.50
2019-01-31T14:17:13.006Z,3.50
2019-01-31T14:19:43.478Z,3.50
2019-01-31T14:22:14.455Z,3.50
2019-01-31T14:24:44.543Z,3.50
2019-01-31T14:27:14.827Z,3.40
2019-01-31T14:29:45.309Z,3.30
2019-01-31T14:32:17.028Z,3.30
2019-01-31T14:34:47.360Z,3.30
2019-01-31T14:37:17.805Z,3.30
2019-01-31T14:39:48.565Z,3.30
2019-01-31T14:42:19.259Z,3.30
2019-01-31T14:44:49.303Z,3.30
2019-01-31T14:47:19.983Z,3.30
2019-01-31T14:49:51.469Z,3.20
2019-01-31T14:52:21.979Z,3.20
2019-01-31T14:54:52.539Z,3.30
2019-01-31T14:57:23.251Z,3.30
2019-01-31T14:59:53.975Z,3.30
2019-01-31T15:02:25.015Z,3.20
2019-01-31T15:04:56.009Z,3.20
2019-01-31T15:07:26.377Z,3.10
2019-01-31T15:09:57.074Z,3.20
2019-01-31T15:12:27.211Z,3.20
2019-01-31T15:14:57.558Z,3.20
2019-01-31T15:17:28.103Z,3.20
2019-01-31T15:19:58.571Z,3.10
2019-01-31T15:22:29.283Z,3.10
2019-01-31T15:25:00.328Z,3.10
2019-01-31T15:27:31.140Z,3.00
2019-01-31T15:30:01.554Z,3.00
2019-01-31T15:32:32.943Z,3.00
2019-01-31T15:35:03.775Z,3.10
2019-01-31T15:37:34.393Z,3.00
2019-01-31T15:40:07.454Z,3.00
2019-01-31T15:42:37.627Z,3.00
2019-01-31T15:45:08.387Z,3.00
2019-01-31T15:47:39.097Z,3.00
2019-01-31T15:50:11.318Z,3.00
2019-01-31T15:52:41.518Z,3.00
2019-01-31T15:55:14.354Z,3.00
2019-01-31T15:57:44.842Z,3.10
2019-01-31T16:00:27.687Z,3.10
2019-01-31T16:02:58.733Z,3.10
2019-01-31T16:05:29.146Z,3.10
2019-01-31T16:07:59.576Z,3.20
2019-01-31T16:10:29.792Z,3.20
2019-01-31T16:12:59.705Z,3.20
2019-01-31T16:15:30.559Z,3.30
2019-01-31T16:18:01.234Z,3.30
2019-01-31T16:20:31.728Z,3.30
2019-01-31T16:23:02.191Z,3.20
2019-01-31T16:25:32.672Z,3.10
2019-01-31T16:28:03.292Z,3.00
2019-01-31T16:30:34.304Z,2.90
2019-01-31T16:33:05.636Z,2.80
2019-01-31T16:35:37.288Z,2.60
2019-01-31T16:38:08.926Z,2.50
2019-01-31T16:40:39.290Z,2.30
2019-01-31T16:43:10.160Z,2.10
2019-01-31T16:45:40.863Z,2.00
2019-01-31T16:48:11.338Z,1.90
2019-01-31T16:50:42.358Z,1.80
2019-01-31T16:53:12.772Z,1.80
2019-01-31T16:55:43.194Z,1.70
2019-01-31T16:58:14.177Z,1.50
2019-01-31T17:00:45.218Z,1.60
2019-01-31T17:03:16.185Z,1.60
2019-01-31T17:05:46.668Z,1.50
2019-01-31T17:08:17.188Z,1.40
2019-01-31T17:10:48.466Z,1.40
2019-01-31T17:13:19.243Z,1.30
2019-01-31T17:15:50.040Z,1.20
2019-01-31T17:18:20.950Z,1.20
2019-01-31T17:20:52.013Z,1.10
2019-01-31T17:23:22.732Z,1.00
2019-01-31T17:25:52.947Z,1.00
2019-01-31T17:28:23.702Z,0.90
2019-01-31T17:30:54.340Z,0.90
2019-01-31T17:33:24.794Z,0.80
2019-01-31T17:35:55.521Z,0.80
2019-01-31T17:38:26.361Z,0.70
2019-01-31T17:40:56.870Z,0.70
2019-01-31T17:43:27.734Z,0.70
2019-01-31T17:45:58.267Z,0.60
2019-01-31T17:48:28.682Z,0.70
2019-01-31T17:50:59.263Z,0.70
2019-01-31T17:53:30.016Z,0.70
2019-01-31T17:56:00.623Z,0.80
2019-01-31T17:58:31.101Z,0.80
2019-01-31T18:01:01.589Z,0.80
2019-01-31T18:03:32.384Z,0.70
2019-01-31T18:06:03.116Z,0.80
2019-01-31T18:08:33.197Z,0.70
2019-01-31T18:11:05.247Z,0.70
2019-01-31T18:13:35.664Z,0.70
2019-01-31T18:16:05.913Z,0.70
2019-01-31T18:18:36.199Z,0.60
2019-01-31T18:21:06.889Z,0.60
2019-01-31T18:23:37.420Z,0.50
2019-01-31T18:26:08.493Z,0.50
2019-01-31T18:28:39.007Z,0.50
2019-01-31T18:31:09.707Z,0.50
2019-01-31T18:33:40.349Z,0.50
2019-01-31T18:36:11.229Z,0.50
2019-01-31T18:38:41.983Z,0.50
2019-01-31T18:41:12.681Z,0.50
2019-01-31T18:43:43.717Z,0.50
2019-01-31T18:46:14.471Z,0.50
2019-01-31T18:48:45.209Z,0.50
2019-01-31T18:51:16.315Z,0.40
2019-01-31T18:53:47.196Z,0.40
2019-01-31T18:56:17.631Z,0.40
2019-01-31T18:58:48.301Z,0.30
2019-01-31T19:01:19.050Z,0.30
2019-01-31T19:03:49.689Z,0.30
2019-01-31T19:06:19.827Z,0.30
2019-01-31T19:08:51.259Z,0.20
2019-01-31T19:11:21.738Z,0.20
2019-01-31T19:13:52.116Z,0.20
2019-01-31T19:16:22.782Z,0.20
2019-01-31T19:18:53.622Z,0.20
2019-01-31T19:21:24.560Z,0.20
2019-01-31T19:23:55.173Z,0.20
2019-01-31T19:26:25.348Z,0.30
2019-01-31T19:28:55.969Z,0.30
2019-01-31T19:31:26.846Z,0.40
2019-01-31T19:33:57.508Z,0.40
2019-01-31T19:36:30.946Z,0.40
2019-01-31T19:39:00.707Z,0.40
2019-01-31T19:41:33.364Z,0.40
2019-01-31T19:44:03.974Z,0.40
2019-01-31T19:46:34.623Z,0.50
2019-01-31T19:49:04.946Z,0.50
2019-01-31T19:51:35.430Z,0.60
2019-01-31T19:54:06.104Z,0.60
2019-01-31T19:56:38.712Z,0.60
2019-01-31T19:59:09.213Z,0.60
2019-01-31T20:01:40.046Z,0.70
2019-01-31T20:04:10.538Z,0.70
2019-01-31T20:06:40.898Z,0.70
2019-01-31T20:09:25.087Z,0.70
2019-01-31T20:11:55.813Z,0.70
2019-01-31T20:14:26.564Z,0.70
2019-01-31T20:16:57.248Z,0.70
2019-01-31T20:19:27.720Z,0.70
2019-01-31T20:21:58.542Z,0.70
2019-01-31T20:24:29.518Z,0.70
2019-01-31T20:27:00.070Z,0.80
2019-01-31T20:29:30.316Z,0.80
2019-01-31T20:32:01.016Z,0.80
2019-01-31T20:34:31.186Z,0.80
2019-01-31T20:37:01.618Z,0.80
2019-01-31T20:39:32.508Z,0.80
2019-01-31T20:42:03.194Z,0.80
2019-01-31T20:44:33.671Z,0.90
2019-01-31T20:47:04.813Z,0.90
2019-01-31T20:49:35.138Z,0.90
2019-01-31T20:52:06.051Z,0.90
2019-01-31T20:54:36.422Z,0.90
2019-01-31T20:57:07.184Z,1.00
2019-01-31T20:59:38.377Z,1.00
2019-01-31T21:02:08.786Z,1.00
2019-01-31T21:04:39.510Z,1.00
2019-01-31T21:07:09.644Z,1.00
2019-01-31T21:09:40.328Z,0.90
2019-01-31T21:12:10.987Z,1.00
2019-01-31T21:14:47.052Z,1.00
2019-01-31T21:17:17.694Z,1.00
2019-01-31T21:19:48.176Z,1.00
2019-01-31T21:22:18.658Z,1.00
2019-01-31T21:24:50.020Z,1.00
2019-01-31T21:27:20.692Z,1.00
2019-01-31T21:29:50.947Z,1.10
2019-01-31T21:32:21.601Z,1.10
2019-01-31T21:34:52.111Z,1.10
2019-01-31T21:37:23.048Z,1.10
2019-01-31T21:39:53.212Z,1.20
2019-01-31T21:42:23.952Z,1.20
2019-01-31T21:44:54.796Z,1.20
2019-01-31T21:47:25.368Z,1.10
2019-01-31T21:49:56.117Z,1.20
2019-01-31T21:52:26.328Z,1.20
2019-01-31T21:54:56.861Z,1.10
2019-01-31T21:57:27.616Z,1.10
2019-01-31T21:59:58.309Z,1.10
2019-01-31T22:02:28.990Z,1.00
2019-01-31T22:04:59.411Z,1.00
2019-01-31T22:07:29.695Z,1.00
2019-01-31T22:09:59.907Z,1.00
2019-01-31T22:12:30.309Z,1.00
2019-01-31T22:15:00.641Z,1.00
2019-01-31T22:17:30.905Z,1.00
2019-01-31T22:20:01.730Z,1.00
2019-01-31T22:22:32.409Z,1.00
2019-01-31T22:25:02.775Z,1.00
2019-01-31T22:27:33.254Z,1.00
2019-01-31T22:30:04.583Z,1.00
2019-01-31T22:32:35.762Z,1.10
2019-01-31T22:35:08.495Z,1.10
2019-01-31T22:37:38.943Z,1.10
2019-01-31T22:40:10.814Z,1.10
2019-01-31T22:42:41.585Z,1.10
2019-01-31T22:45:14.441Z,1.10
2019-01-31T22:47:44.957Z,1.10
2019-01-31T22:50:17.701Z,1.10
2019-01-31T22:52:48.417Z,1.10
2019-01-31T22:55:20.621Z,1.10
2019-01-31T22:57:51.296Z,1.10
2019-01-31T23:00:33.035Z,1.10
2019-01-31T23:03:05.548Z,1.10
2019-01-31T23:05:35.978Z,1.10
2019-01-31T23:08:06.475Z,1.20
2019-01-31T23:10:37.257Z,1.20
2019-01-31T23:13:07.997Z,1.20
2019-01-31T23:15:39.091Z,1.20
2019-01-31T23:18:09.867Z,1.30
2019-01-31T23:20:40.150Z,1.30
2019-01-31T23:23:10.882Z,1.40
2019-01-31T23:25:41.275Z,1.40
2019-01-31T23:28:11.599Z,1.40
2019-01-31T23:30:42.368Z,1.40
2019-01-31T23:33:12.771Z,1.50
2019-01-31T23:35:43.639Z,1.50
2019-01-31T23:38:14.061Z,1.50
2019-01-31T23:40:45.129Z,1.50
2019-01-31T23:43:15.877Z,1.50
2019-01-31T23:45:46.377Z,1.50
2019-01-31T23:48:16.831Z,1.50
2019-01-31T23:50:47.617Z,1.50
2019-01-31T23:53:18.331Z,1.60
2019-01-31T23:55:49.121Z,1.60
2019-01-31T23:58:20.050Z,1.60
